createdAt,value
2019-05-19T00:00:21.779Z,43.28
2019-05-19T00:02:50.713Z,39.67
2019-05-19T00:05:19.395Z,37.70
2019-05-19T00:07:47.968Z,40.60
2019-05-19T00:10:16.645Z,40.03
2019-05-19T00:12:45.141Z,40.88
2019-05-19T00:15:13.647Z,40.80
2019-05-19T00:17:43.752Z,39.30
2019-05-19T00:20:12.494Z,41.85
2019-05-19T00:22:41.111Z,41.90
2019-05-19T00:25:09.829Z,34.15
2019-05-19T00:27:38.340Z,38.48
2019-05-19T00:30:08.631Z,33.88
2019-05-19T00:32:37.153Z,37.70
2019-05-19T00:35:06.818Z,37.45
2019-05-19T00:37:35.455Z,41.70
2019-05-19T00:40:06.495Z,44.67
2019-05-19T00:42:35.106Z,38.53
2019-05-19T00:45:06.021Z,38.28
2019-05-19T00:47:34.531Z,34.30
2019-05-19T00:50:03.616Z,41.53
2019-05-19T00:52:32.209Z,35.75
2019-05-19T00:55:00.779Z,43.58
2019-05-19T00:57:29.711Z,40.58
2019-05-19T00:59:59.422Z,35.38
2019-05-19T01:02:27.907Z,39.60
2019-05-19T01:04:56.645Z,37.28
2019-05-19T01:07:25.191Z,35.50
2019-05-19T01:09:53.773Z,42.03
2019-05-19T01:12:22.346Z,37.67
2019-05-19T01:14:52.465Z,35.03
2019-05-19T01:17:21.083Z,43.52
2019-05-19T01:19:55.912Z,43.13
2019-05-19T01:22:20.133Z,35.70
2019-05-19T01:24:48.727Z,41.60
2019-05-19T01:27:17.216Z,43.38
2019-05-19T01:29:45.860Z,41.65
2019-05-19T01:32:14.446Z,40.05
2019-05-19T01:34:43.058Z,39.73
2019-05-19T01:37:11.642Z,43.83
2019-05-19T01:39:40.130Z,37.28
2019-05-19T01:42:08.692Z,37.65
2019-05-19T01:44:37.236Z,40.70
2019-05-19T01:47:05.770Z,46.05
2019-05-19T01:49:34.277Z,42.90
2019-05-19T01:52:02.846Z,43.08
2019-05-19T01:54:31.342Z,46.73
2019-05-19T01:56:59.823Z,44.30
2019-05-19T01:59:28.350Z,47.23
2019-05-19T02:01:56.850Z,41.60
2019-05-19T02:04:25.474Z,41.35
2019-05-19T02:06:53.972Z,40.80
2019-05-19T02:09:22.529Z,43.15
2019-05-19T02:11:51.068Z,43.23
2019-05-19T02:14:19.649Z,41.23
2019-05-19T02:16:48.224Z,44.05
2019-05-19T02:19:16.778Z,43.03
2019-05-19T02:21:45.370Z,44.55
2019-05-19T02:24:13.925Z,43.95
2019-05-19T02:26:42.434Z,40.28
2019-05-19T02:29:11.021Z,42.27
2019-05-19T02:31:39.510Z,38.50
2019-05-19T02:34:08.145Z,43.90
2019-05-19T02:36:36.727Z,45.43
2019-05-19T02:39:06.584Z,42.55
2019-05-19T02:41:37.406Z,44.93
2019-05-19T02:44:07.318Z,43.95
2019-05-19T02:46:56.759Z,46.28
2019-05-19T02:49:27.816Z,41.58
2019-05-19T02:51:58.831Z,37.25
2019-05-19T02:54:28.145Z,44.13
2019-05-19T02:56:57.227Z,42.05
2019-05-19T02:59:26.238Z,45.78
2019-05-19T03:02:02.430Z,47.98
2019-05-19T03:04:31.312Z,47.80
2019-05-19T03:06:59.972Z,46.55
2019-05-19T03:09:28.546Z,38.23
2019-05-19T03:11:57.137Z,38.48
2019-05-19T03:14:25.774Z,44.38
2019-05-19T03:16:54.360Z,45.55
2019-05-19T03:19:22.966Z,42.17
2019-05-19T03:21:51.476Z,37.85
2019-05-19T03:24:20.046Z,38.42
2019-05-19T03:26:49.428Z,45.90
2019-05-19T03:29:19.582Z,45.33
2019-05-19T03:31:52.478Z,38.15
2019-05-19T03:34:21.022Z,37.57
2019-05-19T03:36:49.657Z,44.80
2019-05-19T03:39:18.217Z,40.95
2019-05-19T03:41:46.691Z,43.73
2019-05-19T03:44:15.197Z,45.83
2019-05-19T03:46:43.749Z,36.95
2019-05-19T03:49:12.267Z,40.58
2019-05-19T03:51:40.789Z,44.88
2019-05-19T03:54:09.366Z,47.15
2019-05-19T03:56:37.881Z,47.43
2019-05-19T03:59:06.380Z,38.33
2019-05-19T04:01:34.867Z,46.53
2019-05-19T04:04:03.380Z,38.30
2019-05-19T04:06:31.913Z,46.00
2019-05-19T04:09:00.398Z,42.15
2019-05-19T04:11:28.914Z,47.10
2019-05-19T04:13:57.394Z,46.25
2019-05-19T04:16:28.096Z,44.77
2019-05-19T04:18:56.677Z,45.23
2019-05-19T04:21:25.240Z,41.15
2019-05-19T04:23:53.817Z,45.75
2019-05-19T04:26:22.431Z,39.30
2019-05-19T04:28:50.928Z,46.65
2019-05-19T04:31:19.414Z,49.13
2019-05-19T04:33:47.996Z,48.20
2019-05-19T04:36:16.616Z,40.28
2019-05-19T04:38:45.172Z,45.55
2019-05-19T04:41:13.719Z,33.58
2019-05-19T04:43:42.353Z,36.98
2019-05-19T04:46:10.893Z,47.00
2019-05-19T04:48:40.195Z,47.60
2019-05-19T04:51:08.754Z,44.50
2019-05-19T04:53:37.364Z,46.30
2019-05-19T04:56:05.923Z,46.75
2019-05-19T04:58:34.438Z,31.65
2019-05-19T05:01:03.597Z,36.96
2019-05-19T05:03:32.227Z,23.35
2019-05-19T05:06:00.747Z,38.33
2019-05-19T05:08:30.789Z,47.67
2019-05-19T05:10:59.655Z,45.80
2019-05-19T05:13:47.611Z,37.78
2019-05-19T05:16:16.153Z,30.10
2019-05-19T05:18:47.693Z,31.17
2019-05-19T05:21:14.883Z,39.53
2019-05-19T05:23:43.403Z,36.75
2019-05-19T05:26:11.881Z,30.05
2019-05-19T05:28:40.446Z,41.53
2019-05-19T05:31:08.999Z,34.30
2019-05-19T05:33:37.503Z,35.33
2019-05-19T05:36:06.057Z,26.15
2019-05-19T05:38:34.592Z,46.30
2019-05-19T05:41:03.074Z,47.88
2019-05-19T05:43:31.638Z,22.15
2019-05-19T05:46:00.222Z,41.10
2019-05-19T05:48:28.778Z,37.08
2019-05-19T05:50:57.447Z,45.65
2019-05-19T05:53:26.010Z,31.62
2019-05-19T05:55:54.541Z,29.90
2019-05-19T05:58:23.244Z,45.93
2019-05-19T06:00:51.837Z,25.68
2019-05-19T06:03:20.408Z,32.33
2019-05-19T06:05:49.093Z,32.13
2019-05-19T06:08:17.651Z,39.15
2019-05-19T06:10:46.171Z,41.13
2019-05-19T06:13:14.745Z,30.40
2019-05-19T06:15:43.323Z,41.90
2019-05-19T06:18:11.917Z,29.60
2019-05-19T06:20:40.403Z,25.00
2019-05-19T06:23:08.912Z,39.48
2019-05-19T06:25:37.529Z,41.98
2019-05-19T06:28:06.129Z,41.10
2019-05-19T06:30:34.719Z,29.18
2019-05-19T06:33:03.996Z,39.73
2019-05-19T06:35:32.537Z,30.88
2019-05-19T06:38:01.086Z,45.80
2019-05-19T06:40:29.594Z,45.23
2019-05-19T06:42:58.129Z,46.10
2019-05-19T06:45:26.786Z,29.20
2019-05-19T06:47:55.359Z,48.00
2019-05-19T06:50:23.907Z,42.20
2019-05-19T06:52:52.539Z,48.30
2019-05-19T06:55:21.160Z,42.17
2019-05-19T06:57:49.753Z,40.98
2019-05-19T07:00:18.710Z,36.17
2019-05-19T07:02:47.206Z,42.15
2019-05-19T07:05:17.331Z,25.40
2019-05-19T07:07:45.875Z,33.83
2019-05-19T07:10:14.512Z,47.07
2019-05-19T07:12:43.076Z,47.67
2019-05-19T07:15:12.310Z,42.10
2019-05-19T07:17:41.358Z,44.10
2019-05-19T07:20:10.314Z,38.45
2019-05-19T07:22:38.872Z,33.63
2019-05-19T07:25:07.746Z,45.85
2019-05-19T07:27:36.239Z,44.48
2019-05-19T07:30:07.998Z,44.55
2019-05-19T07:32:36.542Z,30.68
2019-05-19T07:35:06.352Z,29.82
2019-05-19T07:37:34.938Z,45.05
2019-05-19T07:40:06.055Z,37.50
2019-05-19T07:42:34.630Z,44.73
2019-05-19T07:45:03.274Z,42.45
2019-05-19T07:47:31.790Z,25.10
2019-05-19T07:50:00.387Z,31.60
2019-05-19T07:52:28.940Z,38.05
2019-05-19T07:54:57.525Z,39.15
2019-05-19T07:57:26.108Z,41.92
2019-05-19T07:59:54.733Z,42.48
2019-05-19T08:02:23.266Z,43.70
2019-05-19T08:04:51.800Z,42.08
2019-05-19T08:07:20.403Z,38.00
2019-05-19T08:09:48.996Z,35.48
2019-05-19T08:12:17.518Z,34.55
2019-05-19T08:14:46.166Z,42.40
2019-05-19T08:17:14.746Z,27.27
2019-05-19T08:19:43.417Z,42.78
2019-05-19T08:22:11.929Z,41.57
2019-05-19T08:24:40.420Z,26.05
2019-05-19T08:27:08.941Z,36.23
2019-05-19T08:29:37.557Z,35.92
2019-05-19T08:32:06.124Z,37.10
2019-05-19T08:34:34.749Z,39.35
2019-05-19T08:37:03.244Z,29.92
2019-05-19T08:39:31.836Z,44.50
2019-05-19T08:42:00.491Z,44.42
2019-05-19T08:44:29.063Z,45.38
2019-05-19T08:46:57.652Z,45.03
2019-05-19T08:49:26.301Z,39.00
2019-05-19T08:51:54.863Z,45.38
2019-05-19T08:54:23.429Z,42.78
2019-05-19T08:56:51.927Z,44.50
2019-05-19T08:59:20.529Z,43.15
2019-05-19T09:01:49.091Z,44.20
2019-05-19T09:04:17.567Z,38.90
2019-05-19T09:06:46.070Z,40.88
2019-05-19T09:09:14.545Z,38.08
2019-05-19T09:11:43.121Z,45.20
2019-05-19T09:14:11.608Z,40.35
2019-05-19T09:16:40.137Z,41.63
2019-05-19T09:19:08.655Z,34.83
2019-05-19T09:21:37.116Z,38.42
2019-05-19T09:24:05.619Z,39.23
2019-05-19T09:26:34.218Z,36.88
2019-05-19T09:29:02.802Z,28.25
2019-05-19T09:31:31.324Z,37.98
2019-05-19T09:33:59.908Z,34.03
2019-05-19T09:36:28.404Z,27.52
2019-05-19T09:38:56.967Z,30.50
2019-05-19T09:41:25.557Z,32.15
2019-05-19T09:43:54.107Z,30.65
2019-05-19T09:46:22.760Z,29.60
2019-05-19T09:48:52.935Z,37.33
2019-05-19T09:51:21.477Z,32.05
2019-05-19T09:53:50.052Z,20.77
2019-05-19T09:56:18.646Z,30.10
2019-05-19T09:58:47.200Z,21.70
2019-05-19T10:01:15.669Z,29.50
2019-05-19T10:03:44.330Z,28.30
2019-05-19T10:06:12.922Z,28.35
2019-05-19T10:09:02.482Z,33.35
2019-05-19T10:11:53.392Z,32.40
2019-05-19T10:14:22.144Z,29.65
2019-05-19T10:16:50.722Z,21.35
2019-05-19T10:19:19.342Z,28.80
2019-05-19T10:21:47.937Z,35.05
2019-05-19T10:24:16.449Z,27.30
2019-05-19T10:26:44.992Z,18.12
2019-05-19T10:29:13.535Z,24.67
2019-05-19T10:31:42.071Z,23.95
2019-05-19T10:34:10.560Z,19.45
2019-05-19T10:36:39.242Z,24.37
2019-05-19T10:39:07.890Z,34.45
2019-05-19T10:41:36.454Z,32.63
2019-05-19T10:44:05.223Z,28.32
2019-05-19T10:46:53.137Z,23.75
2019-05-19T10:49:21.809Z,36.10
2019-05-19T10:51:50.354Z,34.40
2019-05-19T10:54:19.092Z,29.48
2019-05-19T10:56:47.679Z,26.57
2019-05-19T10:59:16.165Z,24.47
2019-05-19T11:01:44.737Z,33.30
2019-05-19T11:04:13.381Z,37.00
2019-05-19T11:06:41.861Z,34.53
2019-05-19T11:09:10.540Z,35.98
2019-05-19T11:11:39.177Z,36.17
2019-05-19T11:14:07.664Z,36.53
2019-05-19T11:16:55.607Z,38.58
2019-05-19T11:19:24.392Z,38.23
2019-05-19T11:21:52.972Z,29.37
2019-05-19T11:24:21.645Z,21.95
2019-05-19T11:26:50.284Z,37.70
2019-05-19T11:29:18.831Z,35.45
2019-05-19T11:31:47.361Z,35.60
2019-05-19T11:34:15.943Z,31.35
2019-05-19T11:36:44.475Z,37.17
2019-05-19T11:39:13.024Z,29.32
2019-05-19T11:41:41.580Z,37.55
2019-05-19T11:44:10.150Z,32.58
2019-05-19T11:46:38.716Z,22.40
2019-05-19T11:49:07.339Z,28.65
2019-05-19T11:51:35.872Z,35.60
2019-05-19T11:54:04.511Z,30.62
2019-05-19T11:56:33.073Z,37.05
2019-05-19T11:59:01.686Z,25.77
2019-05-19T12:01:30.564Z,31.17
2019-05-19T12:03:59.169Z,26.07
2019-05-19T12:06:38.723Z,32.13
2019-05-19T12:08:57.997Z,23.47
2019-05-19T12:11:27.307Z,31.82
2019-05-19T12:13:55.888Z,27.98
2019-05-19T12:16:24.438Z,31.00
2019-05-19T12:18:53.017Z,31.37
2019-05-19T12:21:21.599Z,30.62
2019-05-19T12:23:50.155Z,31.27
2019-05-19T12:26:23.332Z,31.33
2019-05-19T12:28:49.043Z,33.98
2019-05-19T12:31:17.665Z,30.43
2019-05-19T12:33:52.015Z,26.17
2019-05-19T12:36:16.543Z,30.65
2019-05-19T12:38:45.073Z,24.35
2019-05-19T12:41:13.604Z,25.45
2019-05-19T12:43:42.171Z,29.55
2019-05-19T12:46:16.556Z,25.43
2019-05-19T12:48:40.917Z,25.08
2019-05-19T12:51:12.292Z,26.50
2019-05-19T12:53:40.912Z,19.37
2019-05-19T12:56:09.437Z,21.70
2019-05-19T12:58:38.051Z,28.65
2019-05-19T13:01:07.091Z,20.90
2019-05-19T13:03:35.574Z,24.57
2019-05-19T13:06:04.094Z,23.83
2019-05-19T13:08:32.682Z,20.37
2019-05-19T13:11:01.246Z,19.60
2019-05-19T13:13:29.844Z,16.73
2019-05-19T13:15:58.392Z,19.80
2019-05-19T13:18:26.882Z,16.82
2019-05-19T13:20:55.444Z,21.52
2019-05-19T13:23:24.042Z,19.82
2019-05-19T13:25:52.667Z,21.07
2019-05-19T13:28:21.255Z,20.60
2019-05-19T13:30:49.724Z,22.13
2019-05-19T13:33:18.215Z,18.40
2019-05-19T13:35:46.839Z,18.17
2019-05-19T13:38:15.333Z,19.45
2019-05-19T13:40:43.977Z,18.20
2019-05-19T13:43:12.494Z,20.68
2019-05-19T13:45:41.044Z,18.00
2019-05-19T13:48:09.555Z,21.40
2019-05-19T13:50:38.114Z,24.12
2019-05-19T13:53:06.691Z,20.75
2019-05-19T13:55:36.178Z,25.65
2019-05-19T13:58:06.431Z,19.35
2019-05-19T14:00:37.932Z,19.48
2019-05-19T14:03:06.689Z,21.50
2019-05-19T14:05:35.221Z,18.32
2019-05-19T14:08:03.735Z,21.85
2019-05-19T14:10:35.532Z,15.80
2019-05-19T14:13:04.082Z,20.00
2019-05-19T14:15:32.625Z,19.10
2019-05-19T14:18:01.259Z,19.50
2019-05-19T14:20:29.817Z,18.80
2019-05-19T14:23:10.475Z,22.82
2019-05-19T14:25:39.074Z,20.05
2019-05-19T14:28:07.562Z,16.82
2019-05-19T14:30:36.129Z,19.20
2019-05-19T14:33:04.690Z,20.00
2019-05-19T14:35:33.194Z,23.10
2019-05-19T14:38:01.772Z,19.00
2019-05-19T14:40:30.254Z,17.30
2019-05-19T14:43:00.482Z,16.73
2019-05-19T14:45:29.059Z,17.00
2019-05-19T14:48:00.015Z,22.37
2019-05-19T14:50:28.531Z,22.77
2019-05-19T14:52:57.037Z,22.22
2019-05-19T14:55:25.745Z,22.80
2019-05-19T14:57:54.274Z,19.35
2019-05-19T15:00:23.896Z,15.72
2019-05-19T15:02:52.429Z,16.15
2019-05-19T15:05:20.907Z,19.37
2019-05-19T15:07:49.393Z,17.55
2019-05-19T15:10:18.382Z,16.80
2019-05-19T15:12:46.965Z,17.98
2019-05-19T15:15:16.174Z,16.87
2019-05-19T15:17:44.749Z,16.87
2019-05-19T15:20:13.554Z,17.73
2019-05-19T15:22:42.110Z,18.12
2019-05-19T15:25:11.277Z,17.27
2019-05-19T15:27:39.765Z,17.98
2019-05-19T15:30:13.237Z,17.87
2019-05-19T15:32:38.951Z,16.67
2019-05-19T15:35:08.468Z,17.55
2019-05-19T15:37:36.949Z,18.10
2019-05-19T15:40:06.722Z,33.02
2019-05-19T15:42:35.201Z,24.18
2019-05-19T15:45:03.824Z,24.20
2019-05-19T15:47:32.420Z,25.77
2019-05-19T15:50:00.990Z,25.52
2019-05-19T15:52:29.469Z,30.12
2019-05-19T15:54:58.002Z,23.95
2019-05-19T15:57:28.626Z,26.65
2019-05-19T15:59:56.724Z,26.87
2019-05-19T16:02:25.306Z,26.45
2019-05-19T16:04:53.866Z,25.20
2019-05-19T16:07:22.569Z,24.33
2019-05-19T16:09:51.122Z,22.42
2019-05-19T16:12:19.657Z,12.53
2019-05-19T16:14:48.186Z,18.25
2019-05-19T16:17:16.735Z,18.57
2019-05-19T16:19:45.217Z,14.83
2019-05-19T16:22:13.964Z,15.93
2019-05-19T16:24:42.528Z,16.90
2019-05-19T16:27:12.816Z,12.55
2019-05-19T16:29:41.338Z,15.10
2019-05-19T16:32:09.824Z,12.70
2019-05-19T16:34:57.838Z,13.83
2019-05-19T16:37:26.398Z,15.90
2019-05-19T16:39:55.144Z,15.23
2019-05-19T16:42:23.720Z,15.15
2019-05-19T16:44:52.284Z,15.83
2019-05-19T16:47:20.821Z,18.35
2019-05-19T16:49:49.541Z,15.10
2019-05-19T16:52:18.241Z,16.40
2019-05-19T16:55:04.893Z,15.28
2019-05-19T16:57:33.496Z,13.28
2019-05-19T17:00:02.074Z,12.63
2019-05-19T17:02:30.686Z,11.60
2019-05-19T17:04:59.491Z,11.48
2019-05-19T17:07:28.065Z,10.65
2019-05-19T17:09:56.682Z,11.18
2019-05-19T17:12:25.363Z,12.80
2019-05-19T17:14:53.892Z,12.47
2019-05-19T17:17:22.713Z,10.30
2019-05-19T17:19:51.281Z,13.62
2019-05-19T17:22:19.801Z,12.77
2019-05-19T17:24:48.510Z,13.20
2019-05-19T17:27:17.168Z,15.18
2019-05-19T17:29:45.912Z,11.22
2019-05-19T17:32:14.522Z,12.23
2019-05-19T17:34:43.137Z,10.90
2019-05-19T17:37:11.707Z,11.20
2019-05-19T17:39:40.307Z,11.60
2019-05-19T17:42:08.839Z,10.50
2019-05-19T17:44:37.380Z,12.85
2019-05-19T17:47:05.868Z,11.22
2019-05-19T17:49:34.463Z,14.43
2019-05-19T17:52:03.292Z,13.38
2019-05-19T17:54:32.327Z,14.25
2019-05-19T17:57:03.118Z,13.15
2019-05-19T17:59:32.424Z,13.38
2019-05-19T18:02:01.038Z,15.53
2019-05-19T18:04:29.527Z,22.60
2019-05-19T18:06:58.004Z,21.50
2019-05-19T18:09:26.490Z,27.90
2019-05-19T18:11:55.227Z,29.57
2019-05-19T18:14:23.784Z,29.37
2019-05-19T18:16:52.546Z,31.97
2019-05-19T18:19:21.518Z,31.55
2019-05-19T18:21:50.101Z,33.88
2019-05-19T18:24:18.669Z,29.30
2019-05-19T18:26:47.279Z,28.27
2019-05-19T18:29:29.203Z,33.90
2019-05-19T18:31:46.271Z,32.58
2019-05-19T18:34:14.914Z,31.10
2019-05-19T18:36:43.501Z,22.60
2019-05-19T18:39:12.059Z,34.98
2019-05-19T18:41:40.735Z,35.13
2019-05-19T18:44:09.215Z,35.38
2019-05-19T18:46:37.846Z,33.40
2019-05-19T18:49:06.531Z,38.85
2019-05-19T18:51:35.166Z,37.65
2019-05-19T18:54:03.655Z,39.65
2019-05-19T18:56:32.244Z,34.30
2019-05-19T18:59:02.378Z,36.05
2019-05-19T19:01:31.124Z,29.63
2019-05-19T19:03:59.831Z,37.38
2019-05-19T19:06:30.785Z,40.48
2019-05-19T19:08:59.321Z,38.08
2019-05-19T19:11:27.871Z,35.13
2019-05-19T19:13:56.392Z,38.33
2019-05-19T19:16:24.966Z,31.83
2019-05-19T19:18:53.457Z,36.42
2019-05-19T19:21:21.994Z,34.27
2019-05-19T19:23:50.552Z,30.40
2019-05-19T19:26:19.166Z,34.78
2019-05-19T19:28:47.674Z,35.55
2019-05-19T19:31:47.765Z,33.37
2019-05-19T19:34:06.308Z,36.58
2019-05-19T19:36:35.042Z,25.57
2019-05-19T19:39:05.220Z,31.12
2019-05-19T19:41:33.848Z,34.45
2019-05-19T19:44:02.430Z,32.50
2019-05-19T19:46:30.918Z,29.80
2019-05-19T19:48:59.509Z,23.95
2019-05-19T19:51:28.121Z,24.87
2019-05-19T19:53:56.670Z,31.30
2019-05-19T19:56:25.236Z,26.42
2019-05-19T19:58:53.810Z,26.75
2019-05-19T20:01:22.362Z,34.20
2019-05-19T20:03:50.877Z,33.92
2019-05-19T20:06:19.438Z,32.93
2019-05-19T20:08:47.930Z,34.30
2019-05-19T20:11:16.443Z,29.25
2019-05-19T20:13:45.021Z,30.60
2019-05-19T20:16:13.648Z,32.60
2019-05-19T20:18:42.339Z,29.45
2019-05-19T20:21:15.130Z,33.00
2019-05-19T20:23:43.666Z,35.15
2019-05-19T20:26:12.271Z,36.28
2019-05-19T20:28:40.752Z,31.57
2019-05-19T20:31:09.918Z,30.18
2019-05-19T20:33:38.542Z,28.30
2019-05-19T20:36:07.226Z,32.78
2019-05-19T20:38:35.702Z,21.25
2019-05-19T20:41:04.375Z,35.25
2019-05-19T20:43:33.002Z,25.80
2019-05-19T20:46:01.486Z,23.52
2019-05-19T20:48:32.668Z,27.65
2019-05-19T20:51:00.521Z,29.77
2019-05-19T20:53:29.014Z,32.53
2019-05-19T20:55:57.655Z,23.77
2019-05-19T20:58:26.277Z,33.70
2019-05-19T21:00:54.753Z,22.98
2019-05-19T21:03:23.232Z,31.85
2019-05-19T21:05:51.750Z,25.20
2019-05-19T21:08:20.307Z,32.55
2019-05-19T21:10:48.778Z,28.80
2019-05-19T21:13:17.284Z,23.47
2019-05-19T21:15:45.914Z,26.45
2019-05-19T21:18:14.381Z,24.35
2019-05-19T21:20:42.980Z,25.43
2019-05-19T21:23:11.610Z,30.45
2019-05-19T21:25:40.087Z,26.55
2019-05-19T21:28:08.594Z,33.10
2019-05-19T21:30:37.066Z,30.95
2019-05-19T21:33:05.538Z,33.73
2019-05-19T21:35:34.354Z,30.70
2019-05-19T21:38:02.952Z,33.88
2019-05-19T21:40:31.513Z,33.75
2019-05-19T21:43:00.013Z,33.67
2019-05-19T21:45:28.515Z,35.78
2019-05-19T21:47:57.055Z,33.50
2019-05-19T21:50:25.574Z,35.33
2019-05-19T21:52:54.049Z,31.85
2019-05-19T21:55:22.536Z,35.00
2019-05-19T21:57:51.107Z,34.45
2019-05-19T22:00:21.946Z,35.88
2019-05-19T22:02:50.498Z,32.60
2019-05-19T22:05:19.132Z,33.40
2019-05-19T22:07:51.829Z,36.23
2019-05-19T22:10:20.384Z,35.40
2019-05-19T22:12:48.938Z,34.80
2019-05-19T22:15:17.451Z,37.33
2019-05-19T22:17:45.923Z,35.40
2019-05-19T22:20:16.021Z,32.75
2019-05-19T22:22:44.585Z,31.65
2019-05-19T22:25:13.323Z,34.88
2019-05-19T22:27:41.862Z,35.48
2019-05-19T22:30:10.564Z,33.58
2019-05-19T22:32:39.174Z,34.95
2019-05-19T22:35:09.574Z,34.18
2019-05-19T22:37:38.099Z,33.85
2019-05-19T22:40:07.201Z,30.48
2019-05-19T22:42:35.818Z,34.92
2019-05-19T22:45:06.407Z,34.23
2019-05-19T22:47:34.984Z,34.03
2019-05-19T22:50:05.663Z,35.48
2019-05-19T22:52:34.143Z,25.68
2019-05-19T22:55:02.990Z,37.40
2019-05-19T22:57:31.490Z,33.05
2019-05-19T23:00:00.098Z,31.07
2019-05-19T23:02:28.633Z,33.23
2019-05-19T23:04:57.149Z,30.43
2019-05-19T23:07:25.676Z,34.87
2019-05-19T23:09:54.278Z,30.62
2019-05-19T23:12:22.882Z,27.48
2019-05-19T23:14:51.351Z,35.38
2019-05-19T23:17:19.848Z,34.50
2019-05-19T23:19:48.487Z,33.63
2019-05-19T23:22:16.968Z,32.00
2019-05-19T23:24:45.486Z,30.08
2019-05-19T23:27:14.070Z,33.08
2019-05-19T23:29:42.557Z,31.23
2019-05-19T23:32:11.143Z,32.93
2019-05-19T23:34:39.698Z,30.90
2019-05-19T23:37:08.308Z,28.92
2019-05-19T23:39:36.934Z,31.25
2019-05-19T23:42:05.503Z,26.15
2019-05-19T23:44:34.007Z,25.05
2019-05-19T23:47:02.542Z,27.37
2019-05-19T23:49:31.043Z,28.47
2019-05-19T23:51:59.626Z,30.15
2019-05-19T23:54:28.174Z,30.85
2019-05-19T23:56:56.710Z,26.00
2019-05-19T23:59:25.190Z,28.65
